sensor_id;sensor_type;location;lat;lon;timestamp;temperature;humidity
6865;DHT22;3471;49.678;8.388;2024-02-16T00:00:02;12.40;99.90
6865;DHT22;3471;49.678;8.388;2024-02-16T00:02:28;12.40;99.90
6865;DHT22;3471;49.678;8.388;2024-02-16T00:04:54;12.40;99.90
6865;DHT22;3471;49.678;8.388;2024-02-16T00:07:20;12.40;99.90
6865;DHT22;3471;49.678;8.388;2024-02-16T00:09:46;12.40;99.90
6865;DHT22;3471;49.678;8.388;2024-02-16T00:12:11;12.40;99.90
6865;DHT22;3471;49.678;8.388;2024-02-16T00:14:37;12.40;99.90
6865;DHT22;3471;49.678;8.388;2024-02-16T00:17:02;12.40;99.90
6865;DHT22;3471;49.678;8.388;2024-02-16T00:19:28;12.40;99.90
6865;DHT22;3471;49.678;8.388;2024-02-16T00:21:54;12.30;99.90
6865;DHT22;3471;49.678;8.388;2024-02-16T00:24:21;12.30;99.90
6865;DHT22;3471;49.678;8.388;2024-02-16T00:26:46;12.30;99.90
6865;DHT22;3471;49.678;8.388;2024-02-16T00:29:12;12.30;99.90
6865;DHT22;3471;49.678;8.388;2024-02-16T00:31:38;12.30;99.90
6865;DHT22;3471;49.678;8.388;2024-02-16T00:34:03;12.30;99.90
6865;DHT22;3471;49.678;8.388;2024-02-16T00:36:29;12.30;99.90
6865;DHT22;3471;49.678;8.388;2024-02-16T00:38:56;12.40;99.90
6865;DHT22;3471;49.678;8.388;2024-02-16T00:41:23;12.40;99.90
6865;DHT22;3471;49.678;8.388;2024-02-16T00:43:49;12.40;99.90
6865;DHT22;3471;49.678;8.388;2024-02-16T00:46:16;12.50;99.90
6865;DHT22;3471;49.678;8.388;2024-02-16T00:48:41;12.50;99.90
6865;DHT22;3471;49.678;8.388;2024-02-16T00:51:07;12.50;99.90
6865;DHT22;3471;49.678;8.388;2024-02-16T00:53:32;12.50;99.90
6865;DHT22;3471;49.678;8.388;2024-02-16T00:55:58;12.50;99.90
6865;DHT22;3471;49.678;8.388;2024-02-16T00:58:24;12.50;99.90
6865;DHT22;3471;49.678;8.388;2024-02-16T01:00:49;12.50;99.90
6865;DHT22;3471;49.678;8.388;2024-02-16T01:03:15;12.50;99.90
6865;DHT22;3471;49.678;8.388;2024-02-16T01:05:40;12.50;99.90
6865;DHT22;3471;49.678;8.388;2024-02-16T01:08:06;12.60;99.90
6865;DHT22;3471;49.678;8.388;2024-02-16T01:10:32;12.60;99.90
6865;DHT22;3471;49.678;8.388;2024-02-16T01:12:57;12.60;99.90
6865;DHT22;3471;49.678;8.388;2024-02-16T01:15:23;12.60;99.90
6865;DHT22;3471;49.678;8.388;2024-02-16T01:17:49;12.60;99.90
6865;DHT22;3471;49.678;8.388;2024-02-16T01:20:15;12.60;99.90
6865;DHT22;3471;49.678;8.388;2024-02-16T01:22:41;12.60;99.90
6865;DHT22;3471;49.678;8.388;2024-02-16T01:25:07;12.60;99.90
6865;DHT22;3471;49.678;8.388;2024-02-16T01:27:34;12.60;99.90
6865;DHT22;3471;49.678;8.388;2024-02-16T01:30:00;12.60;99.90
6865;DHT22;3471;49.678;8.388;2024-02-16T01:32:26;12.60;99.90
6865;DHT22;3471;49.678;8.388;2024-02-16T01:34:52;12.50;99.90
6865;DHT22;3471;49.678;8.388;2024-02-16T01:37:17;12.50;99.90
6865;DHT22;3471;49.678;8.388;2024-02-16T01:39:44;12.50;99.90
6865;DHT22;3471;49.678;8.388;2024-02-16T01:42:10;12.50;99.90
6865;DHT22;3471;49.678;8.388;2024-02-16T01:44:36;12.50;99.90
6865;DHT22;3471;49.678;8.388;2024-02-16T01:47:03;12.50;99.90
6865;DHT22;3471;49.678;8.388;2024-02-16T01:49:29;12.40;99.90
6865;DHT22;3471;49.678;8.388;2024-02-16T01:51:56;12.40;99.90
6865;DHT22;3471;49.678;8.388;2024-02-16T01:54:22;12.40;99.90
6865;DHT22;3471;49.678;8.388;2024-02-16T01:56:48;12.40;99.90
6865;DHT22;3471;49.678;8.388;2024-02-16T01:59:16;12.40;99.90
6865;DHT22;3471;49.678;8.388;2024-02-16T02:01:42;12.40;99.90
6865;DHT22;3471;49.678;8.388;2024-02-16T02:04:07;12.40;99.90
6865;DHT22;3471;49.678;8.388;2024-02-16T02:06:33;12.50;99.90
6865;DHT22;3471;49.678;8.388;2024-02-16T02:08:58;12.50;99.90
6865;DHT22;3471;49.678;8.388;2024-02-16T02:11:24;12.50;99.90
6865;DHT22;3471;49.678;8.388;2024-02-16T02:13:50;12.50;99.90
6865;DHT22;3471;49.678;8.388;2024-02-16T02:16:15;12.50;99.90
6865;DHT22;3471;49.678;8.388;2024-02-16T02:18:42;12.50;99.90
6865;DHT22;3471;49.678;8.388;2024-02-16T02:21:08;12.50;99.90
6865;DHT22;3471;49.678;8.388;2024-02-16T02:23:34;12.50;99.90
6865;DHT22;3471;49.678;8.388;2024-02-16T02:26:01;12.60;99.90
6865;DHT22;3471;49.678;8.388;2024-02-16T02:28:26;12.60;99.90
6865;DHT22;3471;49.678;8.388;2024-02-16T02:30:52;12.60;99.90
6865;DHT22;3471;49.678;8.388;2024-02-16T02:33:19;12.60;99.90
6865;DHT22;3471;49.678;8.388;2024-02-16T02:35:45;12.70;99.90
6865;DHT22;3471;49.678;8.388;2024-02-16T02:38:12;12.70;99.90
6865;DHT22;3471;49.678;8.388;2024-02-16T02:40:37;12.70;99.90
6865;DHT22;3471;49.678;8.388;2024-02-16T02:43:03;12.70;99.90
6865;DHT22;3471;49.678;8.388;2024-02-16T02:45:29;12.70;99.90
6865;DHT22;3471;49.678;8.388;2024-02-16T02:47:54;12.70;99.90
6865;DHT22;3471;49.678;8.388;2024-02-16T02:50:20;12.70;99.90
6865;DHT22;3471;49.678;8.388;2024-02-16T02:52:46;12.70;99.90
6865;DHT22;3471;49.678;8.388;2024-02-16T02:55:11;12.70;99.90
6865;DHT22;3471;49.678;8.388;2024-02-16T02:57:37;12.70;99.90
6865;DHT22;3471;49.678;8.388;2024-02-16T03:00:04;12.70;99.90
6865;DHT22;3471;49.678;8.388;2024-02-16T03:02:31;12.70;99.90
6865;DHT22;3471;49.678;8.388;2024-02-16T03:04:57;12.70;99.90
6865;DHT22;3471;49.678;8.388;2024-02-16T03:07:23;12.70;99.90
6865;DHT22;3471;49.678;8.388;2024-02-16T03:09:48;12.70;99.90
6865;DHT22;3471;49.678;8.388;2024-02-16T03:12:14;12.70;99.90
6865;DHT22;3471;49.678;8.388;2024-02-16T03:14:39;12.60;99.90
6865;DHT22;3471;49.678;8.388;2024-02-16T03:17:05;12.50;99.90
6865;DHT22;3471;49.678;8.388;2024-02-16T03:19:31;12.50;99.90
6865;DHT22;3471;49.678;8.388;2024-02-16T03:21:56;12.50;99.90
6865;DHT22;3471;49.678;8.388;2024-02-16T03:24:22;12.40;99.90
6865;DHT22;3471;49.678;8.388;2024-02-16T03:26:48;12.40;99.90
6865;DHT22;3471;49.678;8.388;2024-02-16T03:29:14;12.30;99.90
6865;DHT22;3471;49.678;8.388;2024-02-16T03:31:39;12.30;99.90
6865;DHT22;3471;49.678;8.388;2024-02-16T03:34:05;12.30;99.90
6865;DHT22;3471;49.678;8.388;2024-02-16T03:36:31;12.20;99.90
6865;DHT22;3471;49.678;8.388;2024-02-16T03:38:56;12.20;99.90
6865;DHT22;3471;49.678;8.388;2024-02-16T03:41:23;12.10;99.90
6865;DHT22;3471;49.678;8.388;2024-02-16T03:43:49;12.10;99.90
6865;DHT22;3471;49.678;8.388;2024-02-16T03:46:15;12.10;99.90
6865;DHT22;3471;49.678;8.388;2024-02-16T03:48:41;12.10;99.90
6865;DHT22;3471;49.678;8.388;2024-02-16T03:51:07;12.00;99.90
6865;DHT22;3471;49.678;8.388;2024-02-16T03:53:32;12.00;99.90
6865;DHT22;3471;49.678;8.388;2024-02-16T03:55:58;11.90;99.90
6865;DHT22;3471;49.678;8.388;2024-02-16T03:58:24;11.90;99.90
6865;DHT22;3471;49.678;8.388;2024-02-16T04:00:50;11.90;99.90
6865;DHT22;3471;49.678;8.388;2024-02-16T04:03:16;11.90;99.90
6865;DHT22;3471;49.678;8.388;2024-02-16T04:05:42;11.90;99.90
6865;DHT22;3471;49.678;8.388;2024-02-16T04:08:08;11.80;99.90
6865;DHT22;3471;49.678;8.388;2024-02-16T04:10:34;11.80;99.90
6865;DHT22;3471;49.678;8.388;2024-02-16T04:13:00;11.70;99.90
6865;DHT22;3471;49.678;8.388;2024-02-16T04:15:26;11.70;99.90
6865;DHT22;3471;49.678;8.388;2024-02-16T04:17:52;11.60;99.90
6865;DHT22;3471;49.678;8.388;2024-02-16T04:20:18;11.60;99.90
6865;DHT22;3471;49.678;8.388;2024-02-16T04:22:44;11.50;99.90
6865;DHT22;3471;49.678;8.388;2024-02-16T04:25:09;11.50;99.90
6865;DHT22;3471;49.678;8.388;2024-02-16T04:27:35;11.40;99.90
6865;DHT22;3471;49.678;8.388;2024-02-16T04:30:02;11.40;99.90
6865;DHT22;3471;49.678;8.388;2024-02-16T04:32:28;11.40;99.90
6865;DHT22;3471;49.678;8.388;2024-02-16T04:34:53;11.40;99.90
6865;DHT22;3471;49.678;8.388;2024-02-16T04:37:24;11.40;99.90
6865;DHT22;3471;49.678;8.388;2024-02-16T04:39:51;11.40;99.90
6865;DHT22;3471;49.678;8.388;2024-02-16T04:42:17;11.40;99.90
6865;DHT22;3471;49.678;8.388;2024-02-16T04:44:42;11.40;99.90
6865;DHT22;3471;49.678;8.388;2024-02-16T04:47:08;11.40;99.90
6865;DHT22;3471;49.678;8.388;2024-02-16T04:49:35;11.40;99.90
6865;DHT22;3471;49.678;8.388;2024-02-16T04:52:00;11.40;99.90
6865;DHT22;3471;49.678;8.388;2024-02-16T04:54:26;11.40;99.90
6865;DHT22;3471;49.678;8.388;2024-02-16T04:56:51;11.40;99.90
6865;DHT22;3471;49.678;8.388;2024-02-16T04:59:17;11.40;99.90
6865;DHT22;3471;49.678;8.388;2024-02-16T05:01:46;11.40;99.90
6865;DHT22;3471;49.678;8.388;2024-02-16T05:04:12;11.30;99.90
6865;DHT22;3471;49.678;8.388;2024-02-16T05:06:44;11.30;99.90
6865;DHT22;3471;49.678;8.388;2024-02-16T05:09:12;11.30;99.90
6865;DHT22;3471;49.678;8.388;2024-02-16T05:11:45;11.30;99.90
6865;DHT22;3471;49.678;8.388;2024-02-16T05:14:11;11.30;99.90
6865;DHT22;3471;49.678;8.388;2024-02-16T05:16:48;11.30;99.90
6865;DHT22;3471;49.678;8.388;2024-02-16T05:19:14;11.30;99.90
6865;DHT22;3471;49.678;8.388;2024-02-16T05:21:39;11.30;99.90
6865;DHT22;3471;49.678;8.388;2024-02-16T05:24:05;11.30;99.90
6865;DHT22;3471;49.678;8.388;2024-02-16T05:26:31;11.30;99.90
6865;DHT22;3471;49.678;8.388;2024-02-16T05:28:56;11.30;99.90
6865;DHT22;3471;49.678;8.388;2024-02-16T05:31:22;11.30;99.90
6865;DHT22;3471;49.678;8.388;2024-02-16T05:33:49;11.30;99.90
6865;DHT22;3471;49.678;8.388;2024-02-16T05:36:19;11.30;99.90
6865;DHT22;3471;49.678;8.388;2024-02-16T05:38:55;11.30;99.90
6865;DHT22;3471;49.678;8.388;2024-02-16T05:41:22;11.30;99.90
6865;DHT22;3471;49.678;8.388;2024-02-16T05:43:47;11.20;99.90
6865;DHT22;3471;49.678;8.388;2024-02-16T05:46:17;11.20;99.90
6865;DHT22;3471;49.678;8.388;2024-02-16T05:48:44;11.20;99.90
6865;DHT22;3471;49.678;8.388;2024-02-16T05:51:10;11.20;99.90
6865;DHT22;3471;49.678;8.388;2024-02-16T05:53:38;11.20;99.90
6865;DHT22;3471;49.678;8.388;2024-02-16T05:56:05;11.20;99.90
6865;DHT22;3471;49.678;8.388;2024-02-16T05:58:30;11.30;99.90
6865;DHT22;3471;49.678;8.388;2024-02-16T06:00:56;11.20;99.90
6865;DHT22;3471;49.678;8.388;2024-02-16T06:03:23;11.20;99.90
6865;DHT22;3471;49.678;8.388;2024-02-16T06:05:48;11.20;99.90
6865;DHT22;3471;49.678;8.388;2024-02-16T06:08:14;11.20;99.90
6865;DHT22;3471;49.678;8.388;2024-02-16T06:10:44;11.20;99.90
6865;DHT22;3471;49.678;8.388;2024-02-16T06:13:16;11.20;99.90
6865;DHT22;3471;49.678;8.388;2024-02-16T06:15:42;11.20;99.90
6865;DHT22;3471;49.678;8.388;2024-02-16T06:18:08;11.20;99.90
6865;DHT22;3471;49.678;8.388;2024-02-16T06:20:35;11.20;99.90
6865;DHT22;3471;49.678;8.388;2024-02-16T06:23:00;11.20;99.90
6865;DHT22;3471;49.678;8.388;2024-02-16T06:25:26;11.20;99.90
6865;DHT22;3471;49.678;8.388;2024-02-16T06:27:51;11.20;99.90
6865;DHT22;3471;49.678;8.388;2024-02-16T06:30:17;11.30;99.90
6865;DHT22;3471;49.678;8.388;2024-02-16T06:32:42;11.30;99.90
6865;DHT22;3471;49.678;8.388;2024-02-16T06:35:08;11.40;99.90
6865;DHT22;3471;49.678;8.388;2024-02-16T06:37:34;11.40;99.90
6865;DHT22;3471;49.678;8.388;2024-02-16T06:40:00;11.40;99.90
6865;DHT22;3471;49.678;8.388;2024-02-16T06:42:26;11.50;99.90
6865;DHT22;3471;49.678;8.388;2024-02-16T06:44:51;11.50;99.90
6865;DHT22;3471;49.678;8.388;2024-02-16T06:47:17;11.50;99.90
6865;DHT22;3471;49.678;8.388;2024-02-16T06:49:44;11.50;99.90
6865;DHT22;3471;49.678;8.388;2024-02-16T06:52:11;11.40;99.90
6865;DHT22;3471;49.678;8.388;2024-02-16T06:54:37;11.40;99.90
6865;DHT22;3471;49.678;8.388;2024-02-16T06:57:03;11.40;99.90
6865;DHT22;3471;49.678;8.388;2024-02-16T06:59:28;11.40;99.90
6865;DHT22;3471;49.678;8.388;2024-02-16T07:01:54;11.40;99.90
6865;DHT22;3471;49.678;8.388;2024-02-16T07:04:20;11.50;99.90
6865;DHT22;3471;49.678;8.388;2024-02-16T07:06:45;11.50;99.90
6865;DHT22;3471;49.678;8.388;2024-02-16T07:09:11;11.40;99.90
6865;DHT22;3471;49.678;8.388;2024-02-16T07:11:39;11.50;99.90
6865;DHT22;3471;49.678;8.388;2024-02-16T07:14:05;11.50;99.90
6865;DHT22;3471;49.678;8.388;2024-02-16T07:16:32;11.50;99.90
6865;DHT22;3471;49.678;8.388;2024-02-16T07:18:57;11.50;99.90
6865;DHT22;3471;49.678;8.388;2024-02-16T07:21:23;11.50;99.90
6865;DHT22;3471;49.678;8.388;2024-02-16T07:23:48;11.50;99.90
6865;DHT22;3471;49.678;8.388;2024-02-16T07:26:14;11.50;99.90
6865;DHT22;3471;49.678;8.388;2024-02-16T07:28:42;11.50;99.90
6865;DHT22;3471;49.678;8.388;2024-02-16T07:31:08;11.60;99.90
6865;DHT22;3471;49.678;8.388;2024-02-16T07:33:33;11.60;99.90
6865;DHT22;3471;49.678;8.388;2024-02-16T07:35:59;11.60;99.90
6865;DHT22;3471;49.678;8.388;2024-02-16T07:38:24;11.70;99.90
6865;DHT22;3471;49.678;8.388;2024-02-16T07:40:50;11.70;99.90
6865;DHT22;3471;49.678;8.388;2024-02-16T07:43:16;11.70;99.90
6865;DHT22;3471;49.678;8.388;2024-02-16T07:45:42;11.70;99.90
6865;DHT22;3471;49.678;8.388;2024-02-16T07:48:08;11.80;99.90
6865;DHT22;3471;49.678;8.388;2024-02-16T07:50:34;11.90;99.90
6865;DHT22;3471;49.678;8.388;2024-02-16T07:52:59;11.90;99.90
6865;DHT22;3471;49.678;8.388;2024-02-16T07:55:25;12.00;99.90
6865;DHT22;3471;49.678;8.388;2024-02-16T07:57:51;12.00;99.90
6865;DHT22;3471;49.678;8.388;2024-02-16T08:00:18;12.10;99.90
6865;DHT22;3471;49.678;8.388;2024-02-16T08:02:44;12.20;99.90
6865;DHT22;3471;49.678;8.388;2024-02-16T08:05:13;12.30;99.90
6865;DHT22;3471;49.678;8.388;2024-02-16T08:07:41;12.40;99.90
6865;DHT22;3471;49.678;8.388;2024-02-16T08:10:08;12.40;99.90
6865;DHT22;3471;49.678;8.388;2024-02-16T08:12:34;12.50;99.90
6865;DHT22;3471;49.678;8.388;2024-02-16T08:15:02;12.60;99.90
6865;DHT22;3471;49.678;8.388;2024-02-16T08:17:29;12.70;99.90
6865;DHT22;3471;49.678;8.388;2024-02-16T08:19:55;12.70;99.90
6865;DHT22;3471;49.678;8.388;2024-02-16T08:22:21;12.80;99.90
6865;DHT22;3471;49.678;8.388;2024-02-16T08:24:47;12.90;99.90
6865;DHT22;3471;49.678;8.388;2024-02-16T08:27:14;12.90;99.90
6865;DHT22;3471;49.678;8.388;2024-02-16T08:29:41;13.00;99.90
6865;DHT22;3471;49.678;8.388;2024-02-16T08:32:06;12.90;99.90
6865;DHT22;3471;49.678;8.388;2024-02-16T08:34:34;13.00;99.90
6865;DHT22;3471;49.678;8.388;2024-02-16T08:37:05;13.00;99.90
6865;DHT22;3471;49.678;8.388;2024-02-16T08:39:32;13.00;99.90
6865;DHT22;3471;49.678;8.388;2024-02-16T08:41:59;13.00;99.90
6865;DHT22;3471;49.678;8.388;2024-02-16T08:44:25;13.00;99.90
6865;DHT22;3471;49.678;8.388;2024-02-16T08:46:51;13.00;99.90
6865;DHT22;3471;49.678;8.388;2024-02-16T08:49:17;13.00;99.90
6865;DHT22;3471;49.678;8.388;2024-02-16T08:51:43;13.00;99.90
6865;DHT22;3471;49.678;8.388;2024-02-16T08:54:09;12.80;99.90
6865;DHT22;3471;49.678;8.388;2024-02-16T08:56:35;12.80;99.90
6865;DHT22;3471;49.678;8.388;2024-02-16T08:59:03;12.80;99.90
6865;DHT22;3471;49.678;8.388;2024-02-16T09:01:36;12.80;99.90
6865;DHT22;3471;49.678;8.388;2024-02-16T09:04:03;12.90;99.90
6865;DHT22;3471;49.678;8.388;2024-02-16T09:06:29;13.00;99.90
6865;DHT22;3471;49.678;8.388;2024-02-16T09:08:55;13.00;99.90
6865;DHT22;3471;49.678;8.388;2024-02-16T09:11:21;13.00;99.90
6865;DHT22;3471;49.678;8.388;2024-02-16T09:13:47;13.00;99.90
6865;DHT22;3471;49.678;8.388;2024-02-16T09:16:12;13.10;99.90
6865;DHT22;3471;49.678;8.388;2024-02-16T09:18:38;13.10;99.90
6865;DHT22;3471;49.678;8.388;2024-02-16T09:21:04;13.10;99.90
6865;DHT22;3471;49.678;8.388;2024-02-16T09:23:32;13.10;99.90
6865;DHT22;3471;49.678;8.388;2024-02-16T09:25:58;13.20;99.90
6865;DHT22;3471;49.678;8.388;2024-02-16T09:28:24;13.20;99.90
6865;DHT22;3471;49.678;8.388;2024-02-16T09:30:50;13.30;99.90
6865;DHT22;3471;49.678;8.388;2024-02-16T09:33:16;13.30;99.90
6865;DHT22;3471;49.678;8.388;2024-02-16T09:35:41;13.40;99.90
6865;DHT22;3471;49.678;8.388;2024-02-16T09:38:07;13.50;99.90
6865;DHT22;3471;49.678;8.388;2024-02-16T09:40:36;13.60;99.90
6865;DHT22;3471;49.678;8.388;2024-02-16T09:43:01;13.70;99.90
6865;DHT22;3471;49.678;8.388;2024-02-16T09:45:28;13.80;99.90
6865;DHT22;3471;49.678;8.388;2024-02-16T09:47:55;14.00;99.90
6865;DHT22;3471;49.678;8.388;2024-02-16T09:50:22;14.00;99.90
6865;DHT22;3471;49.678;8.388;2024-02-16T09:52:49;14.10;99.90
6865;DHT22;3471;49.678;8.388;2024-02-16T09:55:17;14.20;99.90
6865;DHT22;3471;49.678;8.388;2024-02-16T09:57:43;14.30;99.90
6865;DHT22;3471;49.678;8.388;2024-02-16T10:00:09;14.50;99.90
6865;DHT22;3471;49.678;8.388;2024-02-16T10:02:45;14.70;99.90
6865;DHT22;3471;49.678;8.388;2024-02-16T10:05:21;14.80;99.90
6865;DHT22;3471;49.678;8.388;2024-02-16T10:07:47;14.80;99.90
6865;DHT22;3471;49.678;8.388;2024-02-16T10:10:28;14.90;99.90
6865;DHT22;3471;49.678;8.388;2024-02-16T10:13:04;15.20;99.90
6865;DHT22;3471;49.678;8.388;2024-02-16T10:15:30;15.40;99.90
6865;DHT22;3471;49.678;8.388;2024-02-16T10:20:25;15.70;99.90
6865;DHT22;3471;49.678;8.388;2024-02-16T10:23:05;15.90;99.90
6865;DHT22;3471;49.678;8.388;2024-02-16T10:25:32;16.10;99.90
6865;DHT22;3471;49.678;8.388;2024-02-16T10:27:57;16.20;99.90
6865;DHT22;3471;49.678;8.388;2024-02-16T10:30:30;16.30;99.90
6865;DHT22;3471;49.678;8.388;2024-02-16T10:32:57;16.40;99.90
6865;DHT22;3471;49.678;8.388;2024-02-16T10:35:25;16.30;99.90
6865;DHT22;3471;49.678;8.388;2024-02-16T10:37:51;16.40;99.90
6865;DHT22;3471;49.678;8.388;2024-02-16T10:40:19;16.30;99.90
6865;DHT22;3471;49.678;8.388;2024-02-16T10:42:46;16.30;99.90
6865;DHT22;3471;49.678;8.388;2024-02-16T10:45:12;16.20;99.90
6865;DHT22;3471;49.678;8.388;2024-02-16T10:47:41;16.10;99.90
6865;DHT22;3471;49.678;8.388;2024-02-16T10:50:07;16.00;99.90
6865;DHT22;3471;49.678;8.388;2024-02-16T10:52:36;16.00;99.90
6865;DHT22;3471;49.678;8.388;2024-02-16T10:55:04;16.00;99.90
6865;DHT22;3471;49.678;8.388;2024-02-16T10:57:30;15.90;99.90
6865;DHT22;3471;49.678;8.388;2024-02-16T10:59:57;15.90;99.90
6865;DHT22;3471;49.678;8.388;2024-02-16T11:02:24;15.90;99.90
6865;DHT22;3471;49.678;8.388;2024-02-16T11:04:52;15.90;99.90
6865;DHT22;3471;49.678;8.388;2024-02-16T11:07:19;16.00;99.90
6865;DHT22;3471;49.678;8.388;2024-02-16T11:09:46;16.00;99.90
6865;DHT22;3471;49.678;8.388;2024-02-16T11:12:13;16.00;99.90
6865;DHT22;3471;49.678;8.388;2024-02-16T11:14:45;16.00;99.90
6865;DHT22;3471;49.678;8.388;2024-02-16T11:17:16;16.00;99.90
6865;DHT22;3471;49.678;8.388;2024-02-16T11:19:46;16.10;99.90
6865;DHT22;3471;49.678;8.388;2024-02-16T11:22:16;16.20;99.90
6865;DHT22;3471;49.678;8.388;2024-02-16T11:24:45;16.30;99.90
6865;DHT22;3471;49.678;8.388;2024-02-16T11:27:12;16.30;99.90
6865;DHT22;3471;49.678;8.388;2024-02-16T11:29:38;16.40;99.90
6865;DHT22;3471;49.678;8.388;2024-02-16T11:32:07;16.60;99.90
6865;DHT22;3471;49.678;8.388;2024-02-16T11:34:34;16.90;99.90
6865;DHT22;3471;49.678;8.388;2024-02-16T11:37:02;17.20;99.90
6865;DHT22;3471;49.678;8.388;2024-02-16T11:39:28;17.50;99.90
6865;DHT22;3471;49.678;8.388;2024-02-16T11:44:33;18.50;99.90
6865;DHT22;3471;49.678;8.388;2024-02-16T11:46:59;19.10;99.90
6865;DHT22;3471;49.678;8.388;2024-02-16T11:49:26;19.50;99.90
6865;DHT22;3471;49.678;8.388;2024-02-16T11:51:51;19.70;99.90
6865;DHT22;3471;49.678;8.388;2024-02-16T11:54:17;19.60;99.90
6865;DHT22;3471;49.678;8.388;2024-02-16T11:56:47;19.30;99.90
6865;DHT22;3471;49.678;8.388;2024-02-16T11:59:14;19.00;99.90
6865;DHT22;3471;49.678;8.388;2024-02-16T12:04:24;18.80;99.90
6865;DHT22;3471;49.678;8.388;2024-02-16T12:06:59;19.10;99.90
6865;DHT22;3471;49.678;8.388;2024-02-16T12:09:25;19.50;99.90
6865;DHT22;3471;49.678;8.388;2024-02-16T12:11:52;20.10;99.90
6865;DHT22;3471;49.678;8.388;2024-02-16T12:14:18;20.70;99.90
6865;DHT22;3471;49.678;8.388;2024-02-16T12:16:51;21.10;99.90
6865;DHT22;3471;49.678;8.388;2024-02-16T12:19:18;21.40;99.90
6865;DHT22;3471;49.678;8.388;2024-02-16T12:21:49;21.60;99.90
6865;DHT22;3471;49.678;8.388;2024-02-16T12:24:15;21.80;99.90
6865;DHT22;3471;49.678;8.388;2024-02-16T12:26:40;21.90;99.90
6865;DHT22;3471;49.678;8.388;2024-02-16T12:29:06;22.00;99.90
6865;DHT22;3471;49.678;8.388;2024-02-16T12:31:32;21.70;99.90
6865;DHT22;3471;49.678;8.388;2024-02-16T12:33:58;21.40;99.90
6865;DHT22;3471;49.678;8.388;2024-02-16T12:36:23;21.10;99.90
6865;DHT22;3471;49.678;8.388;2024-02-16T12:38:49;20.90;99.90
6865;DHT22;3471;49.678;8.388;2024-02-16T12:41:15;20.60;99.90
6865;DHT22;3471;49.678;8.388;2024-02-16T12:43:41;20.40;99.90
6865;DHT22;3471;49.678;8.388;2024-02-16T12:46:06;20.30;99.90
6865;DHT22;3471;49.678;8.388;2024-02-16T12:48:32;20.30;99.90
6865;DHT22;3471;49.678;8.388;2024-02-16T12:50:58;20.40;99.90
6865;DHT22;3471;49.678;8.388;2024-02-16T12:53:23;20.60;99.90
6865;DHT22;3471;49.678;8.388;2024-02-16T12:55:55;20.30;99.90
6865;DHT22;3471;49.678;8.388;2024-02-16T12:58:21;20.10;99.90
6865;DHT22;3471;49.678;8.388;2024-02-16T13:00:46;20.00;99.90
6865;DHT22;3471;49.678;8.388;2024-02-16T13:03:12;19.90;99.90
6865;DHT22;3471;49.678;8.388;2024-02-16T13:05:37;20.10;99.90
6865;DHT22;3471;49.678;8.388;2024-02-16T13:08:04;20.40;99.90
6865;DHT22;3471;49.678;8.388;2024-02-16T13:10:30;21.20;99.90
6865;DHT22;3471;49.678;8.388;2024-02-16T13:12:55;21.80;99.90
6865;DHT22;3471;49.678;8.388;2024-02-16T13:15:21;21.50;99.90
6865;DHT22;3471;49.678;8.388;2024-02-16T13:17:47;21.10;99.90
6865;DHT22;3471;49.678;8.388;2024-02-16T13:20:12;20.60;99.90
6865;DHT22;3471;49.678;8.388;2024-02-16T13:22:38;20.20;99.90
6865;DHT22;3471;49.678;8.388;2024-02-16T13:25:05;19.70;99.90
6865;DHT22;3471;49.678;8.388;2024-02-16T13:27:31;19.40;99.90
6865;DHT22;3471;49.678;8.388;2024-02-16T13:29:57;19.00;99.90
6865;DHT22;3471;49.678;8.388;2024-02-16T13:32:23;18.80;99.90
6865;DHT22;3471;49.678;8.388;2024-02-16T13:34:49;18.70;99.90
6865;DHT22;3471;49.678;8.388;2024-02-16T13:37:15;18.60;99.90
6865;DHT22;3471;49.678;8.388;2024-02-16T13:39:40;18.50;99.90
6865;DHT22;3471;49.678;8.388;2024-02-16T13:42:06;18.40;99.90
6865;DHT22;3471;49.678;8.388;2024-02-16T13:44:31;18.20;99.90
6865;DHT22;3471;49.678;8.388;2024-02-16T13:46:57;18.00;99.90
6865;DHT22;3471;49.678;8.388;2024-02-16T13:49:23;17.80;99.90
6865;DHT22;3471;49.678;8.388;2024-02-16T13:51:49;17.60;99.90
6865;DHT22;3471;49.678;8.388;2024-02-16T13:54:14;17.50;99.90
6865;DHT22;3471;49.678;8.388;2024-02-16T13:56:40;17.40;99.90
6865;DHT22;3471;49.678;8.388;2024-02-16T13:59:05;17.30;99.90
6865;DHT22;3471;49.678;8.388;2024-02-16T14:01:33;17.20;99.90
6865;DHT22;3471;49.678;8.388;2024-02-16T14:03:59;17.20;99.90
6865;DHT22;3471;49.678;8.388;2024-02-16T14:06:25;17.10;99.90
6865;DHT22;3471;49.678;8.388;2024-02-16T14:08:51;17.00;99.90
6865;DHT22;3471;49.678;8.388;2024-02-16T14:11:18;16.90;99.90
6865;DHT22;3471;49.678;8.388;2024-02-16T14:13:44;16.90;99.90
6865;DHT22;3471;49.678;8.388;2024-02-16T14:16:09;16.90;99.90
6865;DHT22;3471;49.678;8.388;2024-02-16T14:18:36;16.80;99.90
6865;DHT22;3471;49.678;8.388;2024-02-16T14:21:02;16.80;99.90
6865;DHT22;3471;49.678;8.388;2024-02-16T14:23:29;16.80;99.90
6865;DHT22;3471;49.678;8.388;2024-02-16T14:25:55;16.70;99.90
6865;DHT22;3471;49.678;8.388;2024-02-16T14:28:21;16.60;99.90
6865;DHT22;3471;49.678;8.388;2024-02-16T14:30:46;16.50;99.90
6865;DHT22;3471;49.678;8.388;2024-02-16T14:33:12;16.50;99.90
6865;DHT22;3471;49.678;8.388;2024-02-16T14:35:38;16.40;99.90
6865;DHT22;3471;49.678;8.388;2024-02-16T14:38:04;16.40;99.90
6865;DHT22;3471;49.678;8.388;2024-02-16T14:40:32;16.30;99.90
6865;DHT22;3471;49.678;8.388;2024-02-16T14:42:58;15.90;99.90
6865;DHT22;3471;49.678;8.388;2024-02-16T14:45:24;15.90;99.90
6865;DHT22;3471;49.678;8.388;2024-02-16T14:47:50;15.90;99.90
6865;DHT22;3471;49.678;8.388;2024-02-16T14:50:16;15.90;99.90
6865;DHT22;3471;49.678;8.388;2024-02-16T14:52:42;15.90;99.90
6865;DHT22;3471;49.678;8.388;2024-02-16T14:55:08;15.90;99.90
6865;DHT22;3471;49.678;8.388;2024-02-16T14:57:42;16.00;99.90
6865;DHT22;3471;49.678;8.388;2024-02-16T15:00:09;15.90;99.90
6865;DHT22;3471;49.678;8.388;2024-02-16T15:02:36;15.90;99.90
6865;DHT22;3471;49.678;8.388;2024-02-16T15:05:04;15.90;99.90
6865;DHT22;3471;49.678;8.388;2024-02-16T15:07:29;16.00;99.90
6865;DHT22;3471;49.678;8.388;2024-02-16T15:09:55;16.00;99.90
6865;DHT22;3471;49.678;8.388;2024-02-16T15:12:21;16.00;99.90
6865;DHT22;3471;49.678;8.388;2024-02-16T15:14:47;16.00;99.90
6865;DHT22;3471;49.678;8.388;2024-02-16T15:17:13;16.00;99.90
6865;DHT22;3471;49.678;8.388;2024-02-16T15:19:39;16.00;99.90
6865;DHT22;3471;49.678;8.388;2024-02-16T15:22:05;16.00;99.90
6865;DHT22;3471;49.678;8.388;2024-02-16T15:24:30;16.00;99.90
6865;DHT22;3471;49.678;8.388;2024-02-16T15:26:56;16.00;99.90
6865;DHT22;3471;49.678;8.388;2024-02-16T15:29:21;15.90;99.90
6865;DHT22;3471;49.678;8.388;2024-02-16T15:31:47;15.90;99.90
6865;DHT22;3471;49.678;8.388;2024-02-16T15:34:12;15.90;99.90
6865;DHT22;3471;49.678;8.388;2024-02-16T15:36:39;15.90;99.90
6865;DHT22;3471;49.678;8.388;2024-02-16T15:39:05;15.80;99.90
6865;DHT22;3471;49.678;8.388;2024-02-16T15:41:30;15.80;99.90
6865;DHT22;3471;49.678;8.388;2024-02-16T15:43:56;15.80;99.90
6865;DHT22;3471;49.678;8.388;2024-02-16T15:46:22;15.80;99.90
6865;DHT22;3471;49.678;8.388;2024-02-16T15:48:47;15.70;99.90
6865;DHT22;3471;49.678;8.388;2024-02-16T15:51:14;15.70;99.90
6865;DHT22;3471;49.678;8.388;2024-02-16T15:53:39;15.70;99.90
6865;DHT22;3471;49.678;8.388;2024-02-16T15:56:05;15.70;99.90
6865;DHT22;3471;49.678;8.388;2024-02-16T15:58:31;15.60;99.90
6865;DHT22;3471;49.678;8.388;2024-02-16T16:00:57;15.60;99.90
6865;DHT22;3471;49.678;8.388;2024-02-16T16:03:23;15.50;99.90